首页
METAR-TAF:

METAR-TAF

机场 :

東密德蘭機場

東米德蘭, 英格兰

纬度: 52-50N, 经度: 001-20W, 海拔: 94米

当前天气观测

该预报发布于35分钟前的17:20 UTC
风速8节,风向西转西南
温度 6°C
湿度 100%
气压 1020 hPa
能見度: 8000
散云层高于500英尺
多云层高于2100英尺

METAR: EGNX 241720Z 25008KT 8000 SCT005 BKN021 06/06 Q1020

时间: 17:55 (17:55 UTC)

预报

该预报发布于52分钟前的17:03 UTC
预报有效从24日的 18点(UTC)到 25日的 18点(UTC)
风速8节,风向西转西南
能见度10公里或以上
散云层高于400英尺
多云层高于2000英尺
成为
从 24日的 18点(UTC)到 24日的 20点(UTC)
能見度: 7000
短暂存在
从 24日的 18点(UTC)到 25日的 09点(UTC)
能見度: 4000
多云层高于700英尺
轻雾
短暂存在
从 25日的 09点(UTC)到 25日的 13点(UTC)
多云层高于1400英尺
成为
从 25日的 13点(UTC)到 25日的 16点(UTC)
多云层高于1000英尺
几率 30% :
短暂存在
从 25日的 16点(UTC)到 25日的 18点(UTC)
能見度: 3000
多云层高于400英尺
轻雾

TAF: EGNX 241703Z 2418/2518 25008KT 9999 SCT004 BKN020 BECMG 2418/2420 7000 TEMPO 2418/2509 4000 BR BKN007 TEMPO 2509/2513 BKN014 BECMG 2513/2516 BKN010 PROB30 TEMPO 2516/2518 3000 BR BKN004

超过4000个机场的气象观测和天气预报(METAR&TAF报告)。

可查询的气象台以黄色和红色小点在地图上表示。

将鼠标移到小点上方,可查看气象台名称。

然后点击查看天气观测和预报。

如需切换地图:点击带黑十字的绿色按钮放大地图;点击带横线的绿色按钮缩小地图;或者点击绿色箭头查看邻近地区的地图。


METAR-TAF: